Time;durP1;ratioP1;P1;durP2;ratioP2;P2;SDS_P1;SDS_P2;PMS_P1;PMS_P2;Temp;Humidity;BMP_temperature;BMP_pressure;BME280_temperature;BME280_humidity;BME280_pressure;Samples;Min_cycle;Max_cycle;Signal;HPM_P1;HPM_P2
2022/06/10 00:01:04;;;;;;;5.80;4.20;;;;;;;14.72;97.41;98605.41;2596432;28;20053;-84
2022/06/10 00:02:20;;;;;;;13.73;4.75;;;;;;;14.69;97.45;98606.34;2596467;28;20508;-84
2022/06/10 00:03:36;;;;;;;7.03;4.53;;;;;;;14.66;97.87;98600.34;2596379;28;20053;-84
2022/06/10 00:04:51;;;;;;;8.25;4.70;;;;;;;14.59;98.09;98606.81;2596707;28;20096;-84
2022/06/10 00:06:09;;;;;;;8.38;4.50;;;;;;;14.56;98.09;98602.53;2596716;28;20045;-85
2022/06/10 00:07:27;;;;;;;6.65;4.30;;;;;;;14.52;98.14;98601.78;2596626;28;20687;-84
2022/06/10 00:08:46;;;;;;;7.97;4.90;;;;;;;14.53;98.13;98605.28;2596458;28;20064;-84
2022/06/10 00:10:02;;;;;;;6.47;4.28;;;;;;;14.54;98.22;98607.88;2596427;28;20045;-84
2022/06/10 00:11:18;;;;;;;7.28;4.28;;;;;;;14.51;98.65;98607.97;2596531;28;20065;-84
2022/06/10 00:12:34;;;;;;;7.50;4.40;;;;;;;14.50;98.38;98603.63;2596268;28;20053;-84
2022/06/10 00:13:50;;;;;;;5.10;4.18;;;;;;;14.49;98.44;98604.56;2596326;28;20065;-87
2022/06/10 00:15:06;;;;;;;9.75;4.72;;;;;;;14.40;98.78;98604.97;2596729;28;20711;-84
2022/06/10 00:16:22;;;;;;;6.15;4.57;;;;;;;14.47;98.68;98614.31;2596330;28;20049;-85
2022/06/10 00:17:38;;;;;;;5.70;4.60;;;;;;;14.49;98.60;98606.34;2596310;28;20252;-84
2022/06/10 00:18:53;;;;;;;8.60;4.63;;;;;;;14.50;98.60;98610.69;2596426;28;20501;-84
2022/06/10 00:20:11;;;;;;;5.00;4.07;;;;;;;14.48;98.99;98608.13;2596236;28;20412;-84
2022/06/10 00:21:27;;;;;;;6.60;4.30;;;;;;;14.49;99.51;98608.97;2596302;28;20103;-84
2022/06/10 00:22:43;;;;;;;8.43;4.00;;;;;;;14.47;99.37;98608.19;2596588;28;20068;-84
2022/06/10 00:23:58;;;;;;;8.77;4.80;;;;;;;14.50;98.82;98608.91;2596144;28;20049;-85
2022/06/10 00:25:14;;;;;;;11.20;4.80;;;;;;;14.50;98.78;98608.91;2596421;28;20076;-85
2022/06/10 00:26:30;;;;;;;7.45;4.28;;;;;;;14.47;98.46;98611.66;2596584;28;20111;-84
2022/06/10 00:27:46;;;;;;;7.20;4.38;;;;;;;14.46;98.47;98614.34;2595819;28;20068;-85
2022/06/10 00:29:03;;;;;;;5.65;4.20;;;;;;;14.45;98.58;98604.75;2596543;28;20049;-84
2022/06/10 00:30:22;;;;;;;8.75;4.28;;;;;;;14.47;98.72;98608.19;2596409;28;20126;-84
2022/06/10 00:31:38;;;;;;;5.43;4.00;;;;;;;14.45;98.66;98615.28;2595978;28;20046;-86
2022/06/10 00:32:53;;;;;;;7.38;4.60;;;;;;;14.40;98.92;98613.69;2596336;28;20487;-85
2022/06/10 00:34:09;;;;;;;4.88;4.22;;;;;;;14.39;98.76;98609.34;2596578;28;20045;-85
2022/06/10 00:35:26;;;;;;;6.00;4.10;;;;;;;14.40;99.09;98613.69;2595857;28;20049;-84
2022/06/10 00:36:41;;;;;;;10.23;4.40;;;;;;;14.41;98.70;98606.66;2596594;28;20468;-87
2022/06/10 00:37:57;;;;;;;5.70;4.25;;;;;;;14.35;98.85;98610.41;2596425;28;20073;-84
2022/06/10 00:39:13;;;;;;;8.30;4.85;;;;;;;14.34;98.82;98605.19;2595768;28;20068;-84
2022/06/10 00:40:36;;;;;;;8.05;3.92;;;;;;;14.37;98.47;98605.94;2595903;28;20045;-83
2022/06/10 00:41:51;;;;;;;12.98;4.88;;;;;;;14.44;98.07;98610.94;2596254;28;20080;-83
2022/06/10 00:43:15;;;;;;;6.38;4.22;;;;;;;14.43;98.58;98610.09;2596264;28;20057;-84
2022/06/10 00:44:44;;;;;;;6.40;4.28;;;;;;;14.44;97.98;98609.16;2596041;28;20053;-84
2022/06/10 00:46:18;;;;;;;9.20;5.05;;;;;;;14.45;98.36;98612.66;2596365;28;20503;-83
2022/06/10 00:47:41;;;;;;;5.90;4.10;;;;;;;14.39;98.35;98611.16;2595801;28;20083;-84
2022/06/10 00:49:07;;;;;;;7.30;4.07;;;;;;;14.34;98.91;98611.34;2596316;28;20056;-84
2022/06/10 00:50:29;;;;;;;9.43;4.50;;;;;;;14.36;98.65;98621.78;2596124;28;20103;-83
2022/06/10 00:51:54;;;;;;;5.55;4.00;;;;;;;14.33;99.08;98617.53;2596209;28;20056;-84
2022/06/10 00:53:14;;;;;;;9.10;4.75;;;;;;;14.34;98.83;98613.97;2596166;28;20459;-85
2022/06/10 00:54:38;;;;;;;6.45;4.68;;;;;;;14.32;99.08;98609.66;2595963;28;20358;-85
2022/06/10 00:55:55;;;;;;;6.97;4.38;;;;;;;14.31;99.11;98613.22;2596303;28;20051;-84
2022/06/10 00:57:14;;;;;;;7.43;4.57;;;;;;;14.28;99.47;98611.56;2595918;28;20085;-83
2022/06/10 00:58:41;;;;;;;6.53;4.55;;;;;;;14.16;99.59;98615.56;2596067;28;20057;-86
2022/06/10 01:00:17;;;;;;;5.50;4.32;;;;;;;14.30;98.66;98611.50;2596136;28;20080;-84
2022/06/10 01:01:36;;;;;;;7.30;4.45;;;;;;;14.30;98.83;98611.50;2596059;28;20052;-83
2022/06/10 01:02:52;;;;;;;7.50;4.60;;;;;;;14.26;98.80;98609.00;2595901;28;20472;-83
2022/06/10 01:04:09;;;;;;;10.65;4.55;;;;;;;14.25;98.99;98607.31;2595621;28;20107;-85
2022/06/10 01:05:27;;;;;;;7.30;4.50;;;;;;;14.31;98.81;98607.97;2595891;28;20486;-83
2022/06/10 01:06:42;;;;;;;7.13;4.53;;;;;;;14.29;98.69;98615.06;2595707;28;20053;-85
2022/06/10 01:08:03;;;;;;;6.60;4.50;;;;;;;14.30;98.54;98611.50;2595802;28;20045;-84
2022/06/10 01:09:19;;;;;;;6.18;4.25;;;;;;;14.30;98.71;98617.63;2595828;28;20053;-84
2022/06/10 01:10:47;;;;;;;7.03;5.05;;;;;;;14.35;98.24;98613.03;2596102;28;20111;-84
2022/06/10 01:12:06;;;;;;;8.32;4.10;;;;;;;14.26;98.34;98616.91;2595837;28;20484;-83
2022/06/10 01:13:36;;;;;;;5.20;4.18;;;;;;;14.29;98.51;98623.81;2595905;28;20057;-84
2022/06/10 01:15:23;;;;;;;7.65;4.70;;;;;;;14.23;98.42;98622.28;2595696;28;20049;-84
2022/06/10 01:16:53;;;;;;;7.72;4.40;;;;;;;14.32;98.79;98621.06;2595702;28;20081;-84
2022/06/10 01:18:29;;;;;;;7.00;4.38;;;;;;;14.25;98.60;98623.09;2595254;28;20062;-84
2022/06/10 01:20:08;;;;;;;6.88;4.82;;;;;;;14.28;98.57;98624.72;2595932;28;20134;-85
2022/06/10 01:21:53;;;;;;;6.43;4.43;;;;;;;14.24;98.78;98624.00;2595814;28;20515;-84
2022/06/10 01:23:18;;;;;;;6.38;4.22;;;;;;;14.25;98.52;98623.09;2595896;28;20053;-84
2022/06/10 01:24:36;;;;;;;7.22;4.55;;;;;;;14.26;98.42;98623.94;2595743;28;20056;-85
2022/06/10 01:26:19;;;;;;;5.65;4.40;;;;;;;14.24;99.00;98628.41;2595855;28;20046;-84
2022/06/10 01:27:48;;;;;;;6.03;4.65;;;;;;;14.26;98.77;98632.72;2595538;28;20047;-85
2022/06/10 01:29:26;;;;;;;6.88;4.45;;;;;;;14.19;99.21;98625.97;2595731;28;20076;-88
2022/06/10 01:31:02;;;;;;;4.93;4.18;;;;;;;14.19;99.16;98625.97;2595469;28;21138;-87
2022/06/10 01:32:31;;;;;;;5.13;4.28;;;;;;;14.26;99.00;98627.44;2595646;28;20481;-85
2022/06/10 01:34:04;;;;;;;7.65;4.38;;;;;;;14.17;99.35;98630.44;2595493;28;20419;-84
2022/06/10 01:35:48;;;;;;;6.47;4.57;;;;;;;14.22;99.53;98630.25;2595746;28;20054;-87
2022/06/10 01:37:33;;;;;;;6.82;4.70;;;;;;;14.18;99.61;98634.78;2595395;28;20052;-84
2022/06/10 01:39:02;;;;;;;8.20;4.78;;;;;;;14.17;99.65;98634.81;2595703;28;20504;-84
2022/06/10 01:40:38;;;;;;;8.77;4.22;;;;;;;14.10;99.86;98636.84;2595684;28;20133;-88
2022/06/10 01:42:15;;;;;;;7.22;3.90;;;;;;;14.06;100.00;98638.75;2595593;28;20088;-85
2022/06/10 01:43:45;;;;;;;5.85;4.30;;;;;;;14.08;100.00;98634.28;2595509;28;20053;-84
2022/06/10 01:45:39;;;;;;;6.15;4.10;;;;;;;14.09;99.91;98638.63;2595736;28;20560;-84
2022/06/10 01:46:58;;;;;;;8.43;4.05;;;;;;;14.07;100.00;98647.50;2596581;28;20053;-84
2022/06/10 01:48:31;;;;;;;6.13;4.68;;;;;;;14.04;100.00;98645.88;2597600;28;20638;-85
2022/06/10 01:49:46;;;;;;;8.20;4.82;;;;;;;14.08;100.00;98649.22;2597681;28;20045;-84
2022/06/10 01:51:12;;;;;;;8.88;4.20;;;;;;;14.08;100.00;98636.06;2597323;28;20145;-89
2022/06/10 01:52:49;;;;;;;5.60;4.60;;;;;;;14.08;100.00;98646.59;2597561;28;20527;-85
2022/06/10 01:54:21;;;;;;;7.00;4.93;;;;;;;14.07;100.00;98644.88;2597702;28;20053;-84
2022/06/10 01:55:45;;;;;;;8.00;4.20;;;;;;;14.05;100.00;98658.13;2597819;28;20452;-84
2022/06/10 01:57:08;;;;;;;7.32;4.40;;;;;;;14.08;99.96;98649.22;2597935;28;20057;-84
2022/06/10 01:58:37;;;;;;;6.63;4.30;;;;;;;14.10;100.00;98660.53;2597807;28;20055;-84
2022/06/10 01:59:57;;;;;;;6.28;4.95;;;;;;;14.11;100.00;98662.28;2597484;28;20049;-87
2022/06/10 02:01:18;;;;;;;6.35;4.38;;;;;;;14.04;100.00;98661.66;2597454;28;20054;-84
2022/06/10 02:02:38;;;;;;;5.70;4.40;;;;;;;14.00;100.00;98653.94;2597539;28;20057;-88
2022/06/10 02:04:00;;;;;;;7.82;4.40;;;;;;;13.90;100.00;98658.69;2597471;28;20076;-84
2022/06/10 02:05:19;;;;;;;8.10;4.85;;;;;;;13.84;100.00;98658.00;2597573;28;20049;-84
2022/06/10 02:06:43;;;;;;;9.18;5.32;;;;;;;13.81;100.00;98658.13;2597682;28;20050;-86
2022/06/10 02:08:12;;;;;;;6.55;4.90;;;;;;;13.78;100.00;98662.63;2597536;28;20153;-84
2022/06/10 02:09:42;;;;;;;5.88;4.70;;;;;;;13.78;100.00;98673.16;2597877;28;20117;-84
2022/06/10 02:11:06;;;;;;;6.35;4.25;;;;;;;13.73;100.00;98660.19;2597431;28;20053;-89
2022/06/10 02:12:37;;;;;;;7.35;4.15;;;;;;;13.61;100.00;98663.25;2597487;28;20049;-87
2022/06/10 02:13:57;;;;;;;8.25;4.50;;;;;;;13.60;100.00;98665.03;2597781;28;20140;-85
2022/06/10 02:15:20;;;;;;;5.80;4.47;;;;;;;13.52;100.00;98670.59;2597586;28;20591;-85
2022/06/10 02:16:41;;;;;;;5.80;4.50;;;;;;;13.51;100.00;98666.25;2597594;28;20068;-86
2022/06/10 02:18:09;;;;;;;6.00;4.18;;;;;;;13.49;100.00;98675.09;2597517;28;20614;-84
2022/06/10 02:19:35;;;;;;;12.68;6.00;;;;;;;13.47;100.00;98669.88;2597472;28;20057;-85
2022/06/10 02:20:56;;;;;;;8.75;4.55;;;;;;;13.52;100.00;98675.84;2597557;28;20526;-84
2022/06/10 02:22:22;;;;;;;7.75;5.25;;;;;;;13.60;100.00;98670.31;2597839;28;20053;-85
2022/06/10 02:23:43;;;;;;;9.50;4.78;;;;;;;13.67;100.00;98682.31;2597607;28;20053;-85
2022/06/10 02:25:07;;;;;;;6.47;4.57;;;;;;;13.76;100.00;98682.91;2597544;28;20545;-89
2022/06/10 02:26:25;;;;;;;6.88;4.22;;;;;;;13.77;100.00;98674.09;2597387;28;20100;-89
2022/06/10 02:27:46;;;;;;;7.40;4.32;;;;;;;13.72;100.00;98673.41;2597054;28;20099;-85
2022/06/10 02:29:14;;;;;;;5.65;4.57;;;;;;;13.78;100.00;98679.31;2597082;28;20060;-85
2022/06/10 02:30:35;;;;;;;7.65;4.40;;;;;;;13.78;100.00;98681.94;2597734;28;20485;-84
2022/06/10 02:31:55;;;;;;;8.80;4.60;;;;;;;13.82;100.00;98680.03;2597065;28;20261;-85
2022/06/10 02:33:12;;;;;;;5.88;4.43;;;;;;;13.84;100.00;98681.69;2596386;28;20412;-84
2022/06/10 02:34:28;;;;;;;6.05;4.60;;;;;;;13.85;100.00;98685.19;2596721;28;20168;-87
2022/06/10 02:35:50;;;;;;;7.32;4.65;;;;;;;13.87;100.00;98688.63;2597265;28;20057;-84
2022/06/10 02:37:26;;;;;;;7.32;4.30;;;;;;;13.86;100.00;98692.16;2597371;28;20642;-84
2022/06/10 02:39:27;;;;;;;4.93;3.65;;;;;;;13.87;100.00;98698.28;2597446;28;20057;-84
2022/06/10 02:40:45;;;;;;;6.15;4.32;;;;;;;13.83;100.00;98702.81;2594209;28;20119;-84
2022/06/10 02:42:24;;;;;;;7.03;4.28;;;;;;;13.81;100.00;98699.38;2597163;28;20041;-84
2022/06/10 02:43:46;;;;;;;5.65;3.83;;;;;;;13.70;100.00;98710.28;2596973;28;20108;-84
2022/06/10 02:45:25;;;;;;;6.03;4.20;;;;;;;13.67;100.00;98706.00;2597686;28;20041;-83
2022/06/10 02:47:01;;;;;;;10.68;4.60;;;;;;;13.63;100.00;98711.44;2595586;28;20045;-84
2022/06/10 02:48:48;;;;;;;6.82;4.47;;;;;;;13.56;100.00;98711.66;2596154;28;20581;-84
2022/06/10 02:50:04;;;;;;;5.78;4.05;;;;;;;13.54;100.00;98712.59;2597243;28;20093;-85
2022/06/10 02:51:20;;;;;;;7.00;4.55;;;;;;;13.51;100.00;98715.34;2597323;28;20761;-86
2022/06/10 02:52:36;;;;;;;6.18;4.22;;;;;;;13.44;100.00;98716.50;2596897;28;20053;-84
2022/06/10 02:53:52;;;;;;;6.40;4.18;;;;;;;13.35;100.00;98721.13;2596785;28;20044;-84
2022/06/10 02:55:15;;;;;;;6.53;4.45;;;;;;;13.38;100.00;98717.53;2597049;28;20127;-88
2022/06/10 02:56:30;;;;;;;;;;;;;;;13.40;100.00;98724.44;2597646;28;20591;-84
2022/06/10 03:01:18;;;;;;;6.53;4.50;;;;;;;13.51;100.00;98726.75;2595938;28;20645;-84
2022/06/10 03:02:36;;;;;;;7.75;5.47;;;;;;;13.53;100.00;98730.19;2597097;28;20802;-86
2022/06/10 03:04:26;;;;;;;7.75;4.75;;;;;;;13.50;100.00;98732.94;2597016;28;20041;-85
2022/06/10 03:06:17;;;;;;;6.25;4.57;;;;;;;13.51;100.00;98734.63;2596887;28;20053;-84
2022/06/10 03:07:45;;;;;;;8.27;4.30;;;;;;;13.47;100.00;98737.44;2588075;28;20154;-84
2022/06/10 03:09:30;;;;;;;8.20;5.75;;;;;;;13.50;100.00;98746.06;2597056;28;20123;-88
2022/06/10 03:11:01;;;;;;;5.97;4.18;;;;;;;13.52;100.00;98736.34;2596926;28;20053;-85
2022/06/10 03:12:57;;;;;;;6.07;4.60;;;;;;;13.50;100.00;98742.56;2597226;28;20416;-84
2022/06/10 03:14:43;;;;;;;5.72;4.18;;;;;;;13.54;100.00;98752.06;2579907;28;20141;-84
2022/06/10 03:16:15;;;;;;;10.05;4.57;;;;;;;13.50;100.00;98751.34;2593488;28;20101;-84
2022/06/10 03:17:48;;;;;;;8.23;4.50;;;;;;;13.52;100.00;98751.25;2597020;28;20057;-85
2022/06/10 03:19:30;;;;;;;5.63;4.00;;;;;;;13.52;100.00;98748.63;2596945;28;20049;-84
2022/06/10 03:21:10;;;;;;;5.90;4.68;;;;;;;13.55;100.00;98753.81;2597026;28;20123;-84
2022/06/10 03:22:52;;;;;;;5.45;3.85;;;;;;;13.53;100.00;98750.34;2596859;28;20136;-84
2022/06/10 03:24:18;;;;;;;7.15;3.88;;;;;;;13.54;100.00;98765.22;2595104;28;20493;-86
2022/06/10 03:25:40;;;;;;;6.30;4.43;;;;;;;13.54;100.00;98759.97;2596964;28;20053;-82
2022/06/10 03:27:09;;;;;;;8.95;4.50;;;;;;;13.53;100.00;98761.75;2596367;28;20493;-82
2022/06/10 03:28:49;;;;;;;6.78;4.22;;;;;;;13.53;100.00;98769.63;2596955;28;20955;-86
2022/06/10 03:30:08;;;;;;;9.65;4.38;;;;;;;13.60;100.00;98766.78;2596761;28;20115;-84
2022/06/10 03:31:41;;;;;;;7.45;4.70;;;;;;;13.62;100.00;98767.56;2596736;28;20107;-84
2022/06/10 03:33:35;;;;;;;8.35;4.35;;;;;;;13.59;100.00;98775.59;2596828;28;20053;-84
2022/06/10 03:34:56;;;;;;;5.57;3.83;;;;;;;13.63;100.00;98778.06;2584257;28;20054;-84
2022/06/10 03:36:16;;;;;;;5.80;4.20;;;;;;;13.67;100.00;98778.81;2589637;28;20053;-84
2022/06/10 03:37:32;;;;;;;5.57;4.25;;;;;;;13.69;100.00;98780.50;2596479;28;20515;-86
2022/06/10 03:38:50;;;;;;;5.10;4.05;;;;;;;13.77;100.00;98777.59;2596550;28;20057;-86
2022/06/10 03:40:07;;;;;;;10.70;4.93;;;;;;;13.80;100.00;98781.84;2595966;28;20057;-88
2022/06/10 03:41:22;;;;;;;6.32;4.28;;;;;;;13.84;100.00;98778.22;2596570;28;20058;-84
2022/06/10 03:42:44;;;;;;;10.35;4.68;;;;;;;13.87;100.00;98780.75;2595583;28;20056;-84
2022/06/10 03:44:03;;;;;;;5.00;4.30;;;;;;;13.89;100.00;98781.53;2596216;28;20675;-83
2022/06/10 03:45:22;;;;;;;4.25;3.70;;;;;;;13.94;100.00;98779.59;2596585;28;20468;-82
2022/06/10 03:46:40;;;;;;;7.93;4.25;;;;;;;13.95;100.00;98781.31;2596611;28;20412;-83
2022/06/10 03:47:55;;;;;;;5.72;3.78;;;;;;;13.95;100.00;98786.56;2596241;28;20400;-82
2022/06/10 03:49:15;;;;;;;6.57;4.05;;;;;;;14.01;100.00;98790.75;2596645;28;20439;-82
2022/06/10 03:50:35;;;;;;;6.82;3.83;;;;;;;13.95;100.00;98789.19;2596100;28;20064;-85
2022/06/10 03:51:51;;;;;;;5.03;3.88;;;;;;;13.94;100.00;98789.28;2596641;28;20080;-83
2022/06/10 03:53:12;;;;;;;5.43;3.67;;;;;;;14.02;100.00;98789.84;2596568;28;20076;-81
2022/06/10 03:54:28;;;;;;;5.85;3.72;;;;;;;14.01;100.00;98798.66;2596521;28;20053;-82
2022/06/10 03:55:44;;;;;;;5.47;3.80;;;;;;;14.04;100.00;98800.31;2596605;28;20049;-81
2022/06/10 03:56:59;;;;;;;5.18;3.42;;;;;;;14.05;100.00;98800.28;2596393;28;20049;-85
2022/06/10 03:58:16;;;;;;;8.15;3.80;;;;;;;14.05;100.00;98797.66;2596050;28;20054;-84
2022/06/10 03:59:31;;;;;;;4.20;3.47;;;;;;;14.09;100.00;98807.13;2596159;28;20142;-81
2022/06/10 04:00:47;;;;;;;4.45;3.67;;;;;;;14.01;100.00;98806.53;2596629;28;20443;-82
2022/06/10 04:02:03;;;;;;;6.70;3.60;;;;;;;14.08;100.00;98807.19;2596560;28;20102;-81
2022/06/10 04:03:19;;;;;;;6.97;3.83;;;;;;;14.04;100.00;98810.84;2596569;28;20140;-81
2022/06/10 04:04:35;;;;;;;6.97;3.75;;;;;;;14.05;100.00;98810.81;2596478;28;20072;-83
2022/06/10 04:05:50;;;;;;;5.07;3.90;;;;;;;14.06;100.00;98809.88;2596489;28;20057;-81
2022/06/10 04:07:06;;;;;;;5.07;3.42;;;;;;;14.16;100.00;98820.06;2596375;28;20045;-80
2022/06/10 04:08:22;;;;;;;5.45;3.40;;;;;;;14.03;100.00;98819.66;2596347;28;20054;-80
2022/06/10 04:09:38;;;;;;;5.40;3.90;;;;;;;14.04;100.00;98816.13;2595674;28;20060;-80
2022/06/10 04:10:53;;;;;;;6.63;3.47;;;;;;;14.01;100.00;98817.06;2596138;28;20049;-81
2022/06/10 04:12:09;;;;;;;5.22;3.67;;;;;;;14.07;100.00;98816.88;2596256;28;20515;-81
2022/06/10 04:13:25;;;;;;;7.05;3.50;;;;;;;13.98;100.00;98823.34;2596210;28;20132;-81
2022/06/10 04:14:41;;;;;;;5.10;3.33;;;;;;;14.07;100.00;98822.13;2596725;28;20148;-81
2022/06/10 04:15:56;;;;;;;4.70;3.60;;;;;;;14.19;100.00;98826.09;2596036;28;20634;-85
2022/06/10 04:17:12;;;;;;;4.22;3.25;;;;;;;14.23;100.00;98825.06;2596004;28;20057;-82
2022/06/10 04:18:27;;;;;;;4.85;3.45;;;;;;;14.14;100.00;98828.03;2596507;28;20050;-82
2022/06/10 04:19:43;;;;;;;9.55;3.60;;;;;;;14.08;100.00;98828.25;2596384;28;20057;-81
2022/06/10 04:20:59;;;;;;;5.82;3.28;;;;;;;14.10;99.89;98834.31;2596518;28;20045;-81
2022/06/10 04:22:14;;;;;;;6.30;3.60;;;;;;;13.98;99.76;98838.25;2596405;28;20046;-81
2022/06/10 04:23:30;;;;;;;5.13;3.35;;;;;;;14.01;100.00;98829.41;2596599;28;20048;-81
2022/06/10 04:24:46;;;;;;;3.75;3.35;;;;;;;13.95;100.00;98839.22;2596177;28;20053;-81
2022/06/10 04:26:01;;;;;;;3.83;3.03;;;;;;;14.05;100.00;98837.13;2596430;28;20072;-81
2022/06/10 04:27:18;;;;;;;4.57;3.85;;;;;;;14.08;99.91;98838.78;2595981;28;20060;-85
2022/06/10 04:28:33;;;;;;;4.32;2.97;;;;;;;13.98;100.00;98844.41;2594974;28;20053;-81
2022/06/10 04:29:49;;;;;;;4.82;3.58;;;;;;;14.03;99.85;98843.34;2595707;28;20060;-81
2022/06/10 04:31:05;;;;;;;5.38;3.45;;;;;;;14.07;99.81;98848.47;2595462;28;20057;-81
2022/06/10 04:32:20;;;;;;;4.60;3.40;;;;;;;14.12;99.41;98848.31;2595942;28;20743;-80
2022/06/10 04:33:37;;;;;;;6.07;3.58;;;;;;;14.14;100.00;98843.84;2596096;28;20076;-81
2022/06/10 04:34:53;;;;;;;5.65;3.70;;;;;;;14.19;99.28;98847.16;2595850;28;20543;-81
2022/06/10 04:36:12;;;;;;;5.55;3.47;;;;;;;14.26;98.68;98843.41;2596141;28;20053;-81
2022/06/10 04:37:28;;;;;;;6.95;3.50;;;;;;;14.24;98.62;98839.09;2595909;28;20057;-84
2022/06/10 04:38:44;;;;;;;6.28;3.53;;;;;;;14.17;98.67;98835.81;2596295;28;20049;-81
2022/06/10 04:39:59;;;;;;;4.22;3.22;;;;;;;14.23;98.37;98834.75;2595705;28;20103;-83
2022/06/10 04:41:15;;;;;;;4.45;3.47;;;;;;;14.25;98.56;98835.53;2595935;28;20137;-81
2022/06/10 04:42:32;;;;;;;4.30;3.40;;;;;;;14.23;98.51;98837.38;2596002;28;20118;-81
2022/06/10 04:43:47;;;;;;;6.68;3.47;;;;;;;14.29;98.48;98838.94;2596220;28;20469;-81
2022/06/10 04:45:04;;;;;;;4.00;3.53;;;;;;;14.26;98.91;98838.13;2596269;28;20076;-81
2022/06/10 04:46:31;;;;;;;5.05;3.58;;;;;;;14.15;99.18;98834.16;2595702;28;20095;-81
2022/06/10 04:47:46;;;;;;;5.32;3.67;;;;;;;14.13;99.54;98837.69;2595032;28;20041;-81
2022/06/10 04:49:03;;;;;;;5.00;3.55;;;;;;;14.16;100.00;98842.00;2596018;28;20103;-80
2022/06/10 04:50:19;;;;;;;6.13;3.80;;;;;;;14.18;99.48;98832.28;2595195;28;20504;-81
2022/06/10 04:51:36;;;;;;;5.85;3.28;;;;;;;14.22;99.30;98836.50;2594203;28;20059;-81
2022/06/10 04:52:52;;;;;;;6.28;3.53;;;;;;;14.23;100.00;98838.22;2595507;28;20046;-80
2022/06/10 04:54:08;;;;;;;6.68;3.53;;;;;;;14.12;100.00;98841.25;2594996;28;20060;-86
2022/06/10 04:55:27;;;;;;;5.35;3.67;;;;;;;14.07;100.00;98843.19;2594817;28;20076;-80
2022/06/10 04:56:42;;;;;;;6.28;3.67;;;;;;;14.13;100.00;98835.06;2594502;28;20072;-80
2022/06/10 04:57:58;;;;;;;4.45;3.30;;;;;;;14.05;100.00;98847.66;2595412;28;20054;-79
2022/06/10 04:59:13;;;;;;;4.43;3.60;;;;;;;14.20;100.00;98843.59;2594584;28;20045;-80
2022/06/10 05:00:33;;;;;;;6.13;3.78;;;;;;;14.16;100.00;98851.66;2595500;28;20049;-82
2022/06/10 05:01:49;;;;;;;5.35;3.60;;;;;;;14.17;100.00;98850.75;2594641;28;20049;-80
2022/06/10 05:03:05;;;;;;;5.90;3.45;;;;;;;14.16;100.00;98851.66;2595515;28;20465;-80
2022/06/10 05:04:20;;;;;;;5.88;3.42;;;;;;;14.30;100.00;98856.44;2595604;28;20053;-80
2022/06/10 05:05:37;;;;;;;5.45;3.70;;;;;;;14.32;100.00;98857.25;2595067;28;20473;-80
2022/06/10 05:06:53;;;;;;;5.32;3.40;;;;;;;14.35;99.83;98855.38;2594744;28;20554;-80
2022/06/10 05:08:12;;;;;;;4.10;3.15;;;;;;;14.47;99.31;98859.31;2594909;28;20472;-80
2022/06/10 05:09:28;;;;;;;3.92;3.22;;;;;;;14.46;99.56;98859.34;2594709;28;20049;-80
2022/06/10 05:10:44;;;;;;;5.93;3.60;;;;;;;14.53;99.50;98860.84;2594523;28;20049;-80
2022/06/10 05:12:00;;;;;;;4.60;3.60;;;;;;;14.40;99.63;98863.09;2594755;28;20045;-85
2022/06/10 05:13:16;;;;;;;4.20;3.58;;;;;;;14.49;99.30;98867.16;2594994;28;20056;-82
2022/06/10 05:14:32;;;;;;;6.63;3.90;;;;;;;14.41;99.50;98870.09;2594722;28;20049;-81
2022/06/10 05:15:49;;;;;;;4.88;3.80;;;;;;;14.47;99.02;98867.22;2594778;28;20053;-80
2022/06/10 05:17:05;;;;;;;5.68;3.70;;;;;;;14.49;99.24;98864.53;2594444;28;20075;-80
2022/06/10 05:18:23;;;;;;;9.40;4.15;;;;;;;14.54;98.73;98873.97;2594853;28;20083;-84
2022/06/10 05:19:39;;;;;;;4.63;3.83;;;;;;;14.62;98.16;98876.34;2594895;28;20081;-80
2022/06/10 05:20:55;;;;;;;5.22;3.30;;;;;;;14.54;98.04;98873.09;2594509;28;20595;-81
2022/06/10 05:22:10;;;;;;;7.57;3.72;;;;;;;14.60;98.52;98880.81;2594734;28;20045;-81
2022/06/10 05:23:26;;;;;;;8.82;3.50;;;;;;;14.67;97.21;98884.91;2594663;28;20051;-80
2022/06/10 05:24:42;;;;;;;4.18;3.13;;;;;;;14.73;97.36;98875.94;2594873;28;20054;-80
2022/06/10 05:25:58;;;;;;;6.97;3.67;;;;;;;14.73;97.39;98882.97;2594581;28;20053;-81
2022/06/10 05:27:13;;;;;;;4.68;3.80;;;;;;;14.72;96.92;98889.16;2594579;28;20049;-82
2022/06/10 05:28:29;;;;;;;5.60;4.32;;;;;;;14.82;97.07;98886.16;2594511;28;20484;-81
2022/06/10 05:29:44;;;;;;;7.38;4.25;;;;;;;14.76;96.66;98889.00;2594410;28;20049;-80
2022/06/10 05:31:00;;;;;;;7.35;4.18;;;;;;;14.74;97.70;98892.63;2594194;28;20056;-81
2022/06/10 05:32:17;;;;;;;6.18;3.85;;;;;;;14.66;96.39;98892.88;2595010;28;20064;-80
2022/06/10 05:35:07;;;;;;;5.03;3.75;;;;;;;14.77;95.74;98896.00;2595708;28;20527;-82
2022/06/10 05:36:23;;;;;;;5.97;3.88;;;;;;;14.81;96.69;98900.25;2595656;28;20595;-81
2022/06/10 05:37:39;;;;;;;5.15;4.03;;;;;;;14.74;96.32;98895.28;2595726;28;20084;-81
2022/06/10 05:38:55;;;;;;;4.75;3.75;;;;;;;14.76;97.04;98899.53;2595477;28;20053;-80
2022/06/10 05:40:12;;;;;;;5.07;3.78;;;;;;;14.79;96.22;98896.78;2595838;28;20053;-82
2022/06/10 05:43:04;;;;;;;5.20;3.80;;;;;;;14.94;96.87;98911.16;2595026;28;20132;-86
2022/06/10 05:44:20;;;;;;;7.80;3.90;;;;;;;14.91;96.91;98903.38;2595236;28;20558;-81
2022/06/10 05:45:36;;;;;;;7.88;4.07;;;;;;;14.87;95.62;98906.19;2595361;28;20060;-81
2022/06/10 05:46:55;;;;;;;9.63;3.97;;;;;;;15.00;96.57;98906.56;2595425;28;20057;-81
2022/06/10 05:48:11;;;;;;;4.95;3.45;;;;;;;14.92;95.57;98905.09;2594302;28;20077;-79
2022/06/10 05:49:28;;;;;;;5.53;3.97;;;;;;;14.87;96.03;98909.66;2594928;28;20053;-81
2022/06/10 05:50:44;;;;;;;4.38;3.58;;;;;;;14.93;96.56;98905.94;2595042;28;20119;-83
2022/06/10 05:51:59;;;;;;;5.35;3.88;;;;;;;14.88;95.14;98908.78;2595709;28;20049;-81
2022/06/10 05:53:16;;;;;;;4.43;3.55;;;;;;;15.02;95.37;98916.16;2595289;28;20057;-79
2022/06/10 05:54:34;;;;;;;4.55;3.58;;;;;;;14.99;94.75;98907.50;2595806;28;20057;-80
2022/06/10 05:55:49;;;;;;;4.82;3.95;;;;;;;15.03;95.91;98917.03;2595645;28;20515;-80
2022/06/10 05:57:06;;;;;;;4.90;3.58;;;;;;;15.02;94.50;98904.75;2595764;28;20058;-82
2022/06/10 05:58:21;;;;;;;5.45;3.60;;;;;;;15.07;94.60;98914.19;2595790;28;20080;-80
2022/06/10 05:59:39;;;;;;;6.05;3.70;;;;;;;15.02;94.68;98910.88;2595557;28;20064;-80
2022/06/10 06:00:55;;;;;;;4.93;3.15;;;;;;;15.08;94.55;98915.91;2595614;28;20041;-81
2022/06/10 06:02:11;;;;;;;7.05;3.40;;;;;;;15.06;94.60;98916.91;2595915;28;20060;-82
2022/06/10 06:03:27;;;;;;;6.95;3.72;;;;;;;15.23;95.18;98914.44;2595493;28;20050;-80
2022/06/10 06:04:43;;;;;;;5.75;3.63;;;;;;;15.22;94.84;98915.38;2595799;28;20938;-80
2022/06/10 06:05:59;;;;;;;4.85;3.80;;;;;;;15.33;94.38;98919.38;2595627;28;20056;-79
2022/06/10 06:07:24;;;;;;;7.28;3.60;;;;;;;15.30;94.11;98920.34;2595490;28;20061;-80
2022/06/10 06:08:40;;;;;;;4.60;3.78;;;;;;;15.43;93.16;98925.13;2595706;28;20054;-80
2022/06/10 06:09:55;;;;;;;4.65;3.58;;;;;;;15.34;93.18;98916.66;2595695;28;20492;-80
2022/06/10 06:11:11;;;;;;;5.80;3.88;;;;;;;15.39;93.74;98919.09;2595632;28;20118;-83
2022/06/10 06:12:27;;;;;;;4.50;3.53;;;;;;;15.35;92.66;98918.38;2595659;28;20060;-80
2022/06/10 06:13:42;;;;;;;4.05;3.28;;;;;;;15.39;92.12;98925.25;2595550;28;20053;-80
2022/06/10 06:14:58;;;;;;;5.65;3.60;;;;;;;15.54;93.45;98926.41;2595490;28;20050;-82
2022/06/10 06:16:16;;;;;;;6.28;3.53;;;;;;;15.66;92.76;98927.69;2595695;28;20523;-82
2022/06/10 06:17:32;;;;;;;5.32;3.20;;;;;;;15.71;91.31;98929.28;2595740;28;20568;-81
2022/06/10 06:18:48;;;;;;;5.38;3.55;;;;;;;15.67;91.53;98924.13;2595775;28;20056;-82
2022/06/10 06:20:04;;;;;;;5.55;3.50;;;;;;;15.70;91.44;98927.56;2595757;28;20072;-79
2022/06/10 06:21:19;;;;;;;5.75;3.30;;;;;;;15.69;91.43;98924.06;2595790;28;20053;-80
2022/06/10 06:22:35;;;;;;;6.07;3.67;;;;;;;15.89;90.89;98923.25;2595809;28;20076;-83
2022/06/10 06:23:51;;;;;;;5.25;3.50;;;;;;;16.00;92.25;98922.81;2595671;28;20466;-80
2022/06/10 06:25:07;;;;;;;4.22;3.20;;;;;;;16.05;90.50;98925.25;2595491;28;20057;-80
2022/06/10 06:26:23;;;;;;;4.72;3.30;;;;;;;16.22;89.86;98929.81;2595549;28;20479;-79
2022/06/10 06:27:38;;;;;;;5.28;3.50;;;;;;;16.42;90.52;98928.09;2595560;28;20413;-79